sensor_id;sensor_type;location;lat;lon;timestamp;pressure;altitude;pressure_sealevel;temperature;humidity
63090;BME280;49174;43.198;27.824;2022-07-22T00:00:11;101537.00;;;18.69;87.85
63090;BME280;49174;43.198;27.824;2022-07-22T00:02:36;101535.66;;;18.72;87.52
63090;BME280;49174;43.198;27.824;2022-07-22T00:05:02;101536.75;;;18.71;87.85
63090;BME280;49174;43.198;27.824;2022-07-22T00:07:28;101536.75;;;18.71;87.69
63090;BME280;49174;43.198;27.824;2022-07-22T00:09:54;101541.25;;;18.65;87.86
63090;BME280;49174;43.198;27.824;2022-07-22T00:12:19;101541.25;;;18.65;88.25
63090;BME280;49174;43.198;27.824;2022-07-22T00:14:45;101545.50;;;18.61;88.81
63090;BME280;49174;43.198;27.824;2022-07-22T00:17:10;101548.00;;;18.63;88.73
63090;BME280;49174;43.198;27.824;2022-07-22T00:19:36;101544.66;;;18.61;89.64
63090;BME280;49174;43.198;27.824;2022-07-22T00:22:03;101548.59;;;18.65;89.68
63090;BME280;49174;43.198;27.824;2022-07-22T00:24:29;101546.22;;;18.68;89.09
63090;BME280;49174;43.198;27.824;2022-07-22T00:26:55;101542.81;;;18.73;88.41
63090;BME280;49174;43.198;27.824;2022-07-22T00:29:21;101538.81;;;18.75;88.63
63090;BME280;49174;43.198;27.824;2022-07-22T00:31:46;101544.28;;;18.75;88.58
63090;BME280;49174;43.198;27.824;2022-07-22T00:34:12;101548.69;;;18.77;88.80
63090;BME280;49174;43.198;27.824;2022-07-22T00:36:37;101542.59;;;18.74;89.71
63090;BME280;49174;43.198;27.824;2022-07-22T00:39:03;101549.34;;;18.72;90.07
63090;BME280;49174;43.198;27.824;2022-07-22T00:41:29;101554.41;;;18.75;90.06
63090;BME280;49174;43.198;27.824;2022-07-22T00:44:04;101542.59;;;18.74;89.71
63090;BME280;49174;43.198;27.824;2022-07-22T00:46:30;101545.34;;;18.74;89.67
63090;BME280;49174;43.198;27.824;2022-07-22T00:48:57;101543.03;;;18.71;88.90
63090;BME280;49174;43.198;27.824;2022-07-22T00:51:23;101550.66;;;18.69;88.65
63090;BME280;49174;43.198;27.824;2022-07-22T00:53:51;101550.66;;;18.69;89.03
63090;BME280;49174;43.198;27.824;2022-07-22T00:56:17;101533.66;;;18.67;88.12
63090;BME280;49174;43.198;27.824;2022-07-22T00:58:44;101546.69;;;18.65;87.97
63090;BME280;49174;43.198;27.824;2022-07-22T01:01:10;101547.16;;;18.62;87.33
63090;BME280;49174;43.198;27.824;2022-07-22T01:03:36;101539.66;;;18.58;86.56
63090;BME280;49174;43.198;27.824;2022-07-22T01:06:01;101537.38;;;18.54;86.06
63090;BME280;49174;43.198;27.824;2022-07-22T01:08:27;101538.91;;;18.50;86.08
63090;BME280;49174;43.198;27.824;2022-07-22T01:10:52;101533.06;;;18.47;86.03
63090;BME280;49174;43.198;27.824;2022-07-22T01:13:18;101537.13;;;18.44;86.09
63090;BME280;49174;43.198;27.824;2022-07-22T01:15:44;101535.88;;;18.40;86.06
63090;BME280;49174;43.198;27.824;2022-07-22T01:18:10;101526.50;;;18.36;85.59
63090;BME280;49174;43.198;27.824;2022-07-22T01:20:36;101534.91;;;18.35;86.25
63090;BME280;49174;43.198;27.824;2022-07-22T01:23:02;101534.91;;;18.35;86.97
63090;BME280;49174;43.198;27.824;2022-07-22T01:25:27;101532.78;;;18.37;87.83
63090;BME280;49174;43.198;27.824;2022-07-22T01:27:53;101529.22;;;18.36;88.30
63090;BME280;49174;43.198;27.824;2022-07-22T01:30:19;101529.81;;;18.38;89.56
63090;BME280;49174;43.198;27.824;2022-07-22T01:32:45;101531.72;;;18.38;90.22
63090;BME280;49174;43.198;27.824;2022-07-22T01:35:11;101528.97;;;18.38;89.51
63090;BME280;49174;43.198;27.824;2022-07-22T01:37:36;101531.97;;;18.36;88.82
63090;BME280;49174;43.198;27.824;2022-07-22T01:40:03;101524.44;;;18.31;89.22
63090;BME280;49174;43.198;27.824;2022-07-22T01:42:29;101524.91;;;18.28;89.29
63090;BME280;49174;43.198;27.824;2022-07-22T01:44:54;101521.56;;;18.26;90.30
63090;BME280;49174;43.198;27.824;2022-07-22T01:47:20;101522.16;;;18.28;88.96
63090;BME280;49174;43.198;27.824;2022-07-22T01:49:46;101520.72;;;18.26;88.15
63090;BME280;49174;43.198;27.824;2022-07-22T01:52:11;101524.97;;;18.22;88.76
63090;BME280;49174;43.198;27.824;2022-07-22T01:54:37;101521.66;;;18.20;89.58
63090;BME280;49174;43.198;27.824;2022-07-22T01:57:03;101515.56;;;18.18;89.82
63090;BME280;49174;43.198;27.824;2022-07-22T01:59:28;101516.03;;;18.15;90.36
63090;BME280;49174;43.198;27.824;2022-07-22T02:01:54;101512.00;;;18.17;90.98
63090;BME280;49174;43.198;27.824;2022-07-22T02:04:20;101518.69;;;18.21;91.60
63090;BME280;49174;43.198;27.824;2022-07-22T02:06:45;101525.81;;;18.22;90.49
63090;BME280;49174;43.198;27.824;2022-07-22T02:09:11;101524.13;;;18.21;90.64
63090;BME280;49174;43.198;27.824;2022-07-22T02:11:36;101525.66;;;18.17;91.12
63090;BME280;49174;43.198;27.824;2022-07-22T02:14:02;101529.00;;;18.19;91.69
63090;BME280;49174;43.198;27.824;2022-07-22T02:16:28;101522.22;;;18.22;91.07
63090;BME280;49174;43.198;27.824;2022-07-22T02:18:54;101522.03;;;18.23;91.67
63090;BME280;49174;43.198;27.824;2022-07-22T02:21:20;101527.47;;;18.23;91.46
63090;BME280;49174;43.198;27.824;2022-07-22T02:23:45;101527.94;;;18.20;91.92
63090;BME280;49174;43.198;27.824;2022-07-22T02:26:11;101522.22;;;18.22;90.77
63090;BME280;49174;43.198;27.824;2022-07-22T02:28:37;101520.81;;;18.19;91.20
63090;BME280;49174;43.198;27.824;2022-07-22T02:31:03;101523.16;;;18.16;90.74
63090;BME280;49174;43.198;27.824;2022-07-22T02:33:28;101523.16;;;18.16;89.80
63090;BME280;49174;43.198;27.824;2022-07-22T02:35:55;101518.41;;;18.11;89.37
63090;BME280;49174;43.198;27.824;2022-07-22T02:38:21;101522.63;;;18.07;89.34
63090;BME280;49174;43.198;27.824;2022-07-22T02:40:47;101526.03;;;18.02;89.81
63090;BME280;49174;43.198;27.824;2022-07-22T02:43:13;101525.66;;;17.99;89.39
63090;BME280;49174;43.198;27.824;2022-07-22T02:45:38;101520.44;;;17.97;89.29
63090;BME280;49174;43.198;27.824;2022-07-22T02:48:04;101529.09;;;17.94;89.13
63090;BME280;49174;43.198;27.824;2022-07-22T02:50:30;101524.91;;;17.92;88.69
63090;BME280;49174;43.198;27.824;2022-07-22T02:52:58;101520.50;;;17.91;88.22
63090;BME280;49174;43.198;27.824;2022-07-22T02:55:24;101524.50;;;17.88;87.66
63090;BME280;49174;43.198;27.824;2022-07-22T02:57:50;101517.84;;;17.84;87.63
63090;BME280;49174;43.198;27.824;2022-07-22T03:00:16;101522.94;;;17.80;87.95
63090;BME280;49174;43.198;27.824;2022-07-22T03:02:42;101522.31;;;17.78;88.50
63090;BME280;49174;43.198;27.824;2022-07-22T03:05:08;101521.66;;;17.76;88.40
63090;BME280;49174;43.198;27.824;2022-07-22T03:07:34;101524.41;;;17.76;88.00
63090;BME280;49174;43.198;27.824;2022-07-22T03:09:59;101527.13;;;17.76;87.83
63090;BME280;49174;43.198;27.824;2022-07-22T03:12:25;101527.13;;;17.76;89.00
63090;BME280;49174;43.198;27.824;2022-07-22T03:14:51;101532.59;;;17.76;89.12
63090;BME280;49174;43.198;27.824;2022-07-22T03:17:16;101536.38;;;17.75;88.95
63090;BME280;49174;43.198;27.824;2022-07-22T03:19:42;101529.84;;;17.76;89.49
63090;BME280;49174;43.198;27.824;2022-07-22T03:22:08;101524.19;;;17.78;89.27
63090;BME280;49174;43.198;27.824;2022-07-22T03:24:33;101530.06;;;17.81;89.79
63090;BME280;49174;43.198;27.824;2022-07-22T03:27:00;101525.41;;;17.82;90.64
63090;BME280;49174;43.198;27.824;2022-07-22T03:29:25;101519.75;;;17.83;90.72
63090;BME280;49174;43.198;27.824;2022-07-22T03:31:51;101522.66;;;17.89;92.26
63090;BME280;49174;43.198;27.824;2022-07-22T03:34:16;101532.88;;;17.93;92.27
63090;BME280;49174;43.198;27.824;2022-07-22T03:36:42;101525.91;;;17.97;92.59
63090;BME280;49174;43.198;27.824;2022-07-22T03:39:07;101530.09;;;18.00;93.26
63090;BME280;49174;43.198;27.824;2022-07-22T03:41:33;101534.63;;;18.06;93.17
63090;BME280;49174;43.198;27.824;2022-07-22T03:43:58;101531.19;;;18.11;93.26
63090;BME280;49174;43.198;27.824;2022-07-22T03:46:24;101534.69;;;18.18;93.60
63090;BME280;49174;43.198;27.824;2022-07-22T03:48:50;101535.88;;;18.22;93.64
63090;BME280;49174;43.198;27.824;2022-07-22T03:51:15;101529.75;;;18.26;93.67
63090;BME280;49174;43.198;27.824;2022-07-22T03:53:41;101532.41;;;18.33;94.08
63090;BME280;49174;43.198;27.824;2022-07-22T03:56:07;101530.53;;;18.34;94.41
63090;BME280;49174;43.198;27.824;2022-07-22T03:58:32;101526.50;;;18.36;93.44
63090;BME280;49174;43.198;27.824;2022-07-22T04:00:58;101533.78;;;18.42;94.06
63090;BME280;49174;43.198;27.824;2022-07-22T04:03:23;101540.22;;;18.48;93.71
63090;BME280;49174;43.198;27.824;2022-07-22T04:05:49;101535.94;;;18.52;93.94
63090;BME280;49174;43.198;27.824;2022-07-22T04:08:16;101534.19;;;18.58;93.66
63090;BME280;49174;43.198;27.824;2022-07-22T04:10:42;101524.47;;;18.62;93.26
63090;BME280;49174;43.198;27.824;2022-07-22T04:13:07;101529.47;;;18.65;93.33
63090;BME280;49174;43.198;27.824;2022-07-22T04:15:33;101519.50;;;18.70;93.55
63090;BME280;49174;43.198;27.824;2022-07-22T04:17:58;101523.00;;;18.78;93.61
63090;BME280;49174;43.198;27.824;2022-07-22T04:20:24;101527.56;;;18.84;93.60
63090;BME280;49174;43.198;27.824;2022-07-22T04:22:50;101522.91;;;18.84;93.58
63090;BME280;49174;43.198;27.824;2022-07-22T04:25:15;101526.00;;;18.88;93.72
63090;BME280;49174;43.198;27.824;2022-07-22T04:27:41;101518.63;;;18.88;93.25
63090;BME280;49174;43.198;27.824;2022-07-22T04:30:07;101520.47;;;18.94;92.80
63090;BME280;49174;43.198;27.824;2022-07-22T04:32:33;101518.91;;;18.98;93.69
63090;BME280;49174;43.198;27.824;2022-07-22T04:34:58;101523.31;;;19.00;93.00
63090;BME280;49174;43.198;27.824;2022-07-22T04:37:24;101527.88;;;19.06;92.70
63090;BME280;49174;43.198;27.824;2022-07-22T04:39:49;101522.28;;;19.12;93.41
63090;BME280;49174;43.198;27.824;2022-07-22T04:42:15;101525.16;;;19.17;92.86
63090;BME280;49174;43.198;27.824;2022-07-22T04:44:40;101523.13;;;19.25;92.92
63090;BME280;49174;43.198;27.824;2022-07-22T04:47:06;101523.03;;;19.31;92.76
63090;BME280;49174;43.198;27.824;2022-07-22T04:49:32;101533.84;;;19.38;92.61
63090;BME280;49174;43.198;27.824;2022-07-22T04:51:57;101531.59;;;19.47;92.21
63090;BME280;49174;43.198;27.824;2022-07-22T04:54:23;101535.41;;;19.57;93.20
63090;BME280;49174;43.198;27.824;2022-07-22T04:56:49;101534.00;;;19.67;92.42
63090;BME280;49174;43.198;27.824;2022-07-22T05:11:00;101536.59;;;20.61;88.83
63090;BME280;49174;43.198;27.824;2022-07-22T05:13:26;101537.78;;;20.65;89.17
63090;BME280;49174;43.198;27.824;2022-07-22T05:15:51;101535.53;;;20.62;90.08
63090;BME280;49174;43.198;27.824;2022-07-22T05:18:17;101541.25;;;20.60;89.80
63090;BME280;49174;43.198;27.824;2022-07-22T05:20:43;101543.28;;;20.65;89.93
63090;BME280;49174;43.198;27.824;2022-07-22T05:23:08;101544.78;;;20.72;90.27
63090;BME280;49174;43.198;27.824;2022-07-22T05:25:34;101538.66;;;20.82;89.89
63090;BME280;49174;43.198;27.824;2022-07-22T05:27:59;101533.84;;;20.89;89.79
63090;BME280;49174;43.198;27.824;2022-07-22T05:30:25;101535.72;;;21.01;89.58
63090;BME280;49174;43.198;27.824;2022-07-22T05:32:51;101535.03;;;21.10;89.71
63090;BME280;49174;43.198;27.824;2022-07-22T05:35:17;101539.53;;;21.16;88.63
63090;BME280;49174;43.198;27.824;2022-07-22T05:37:43;101529.25;;;21.24;88.70
63090;BME280;49174;43.198;27.824;2022-07-22T05:40:09;101531.56;;;21.32;88.19
63090;BME280;49174;43.198;27.824;2022-07-22T05:42:34;101526.53;;;21.40;87.31
63090;BME280;49174;43.198;27.824;2022-07-22T05:45:00;101523.94;;;21.51;87.33
63090;BME280;49174;43.198;27.824;2022-07-22T05:47:26;101525.25;;;21.65;86.10
63090;BME280;49174;43.198;27.824;2022-07-22T05:49:51;101529.22;;;21.74;86.43
63090;BME280;49174;43.198;27.824;2022-07-22T05:52:17;101530.44;;;21.83;86.80
63090;BME280;49174;43.198;27.824;2022-07-22T05:54:43;101535.59;;;21.97;85.74
63090;BME280;49174;43.198;27.824;2022-07-22T05:57:08;101533.81;;;22.07;86.21
63090;BME280;49174;43.198;27.824;2022-07-22T05:59:35;101535.97;;;22.22;85.26
63090;BME280;49174;43.198;27.824;2022-07-22T06:02:02;101532.81;;;22.36;84.73
63090;BME280;49174;43.198;27.824;2022-07-22T06:04:27;101529.69;;;22.49;84.41
63090;BME280;49174;43.198;27.824;2022-07-22T06:06:53;101530.94;;;22.63;84.45
63090;BME280;49174;43.198;27.824;2022-07-22T06:09:19;101537.94;;;22.76;83.72
63090;BME280;49174;43.198;27.824;2022-07-22T06:11:44;101534.84;;;22.94;83.26
63090;BME280;49174;43.198;27.824;2022-07-22T06:14:10;101534.22;;;23.14;82.26
63090;BME280;49174;43.198;27.824;2022-07-22T06:16:36;101534.09;;;23.31;81.04
63090;BME280;49174;43.198;27.824;2022-07-22T06:19:02;101537.31;;;23.55;79.31
63090;BME280;49174;43.198;27.824;2022-07-22T06:21:27;101537.47;;;23.76;78.18
63090;BME280;49174;43.198;27.824;2022-07-22T06:23:53;101536.47;;;23.92;77.03
63090;BME280;49174;43.198;27.824;2022-07-22T06:26:18;101534.66;;;24.13;75.76
63090;BME280;49174;43.198;27.824;2022-07-22T06:28:44;101528.09;;;24.35;74.97
63090;BME280;49174;43.198;27.824;2022-07-22T06:31:09;101519.13;;;24.55;72.01
63090;BME280;49174;43.198;27.824;2022-07-22T06:33:35;101512.25;;;24.72;70.89
63090;BME280;49174;43.198;27.824;2022-07-22T06:36:01;101523.88;;;24.95;70.67
63090;BME280;49174;43.198;27.824;2022-07-22T06:38:27;101518.13;;;25.17;68.42
63090;BME280;49174;43.198;27.824;2022-07-22T06:40:52;101513.13;;;25.34;65.82
63090;BME280;49174;43.198;27.824;2022-07-22T06:43:18;101508.44;;;25.55;64.23
63090;BME280;49174;43.198;27.824;2022-07-22T06:45:44;101513.06;;;25.80;64.01
63090;BME280;49174;43.198;27.824;2022-07-22T06:48:09;101505.84;;;26.05;60.94
63090;BME280;49174;43.198;27.824;2022-07-22T06:50:35;101501.28;;;26.29;61.24
63090;BME280;49174;43.198;27.824;2022-07-22T06:53:03;101508.94;;;26.58;60.20
63090;BME280;49174;43.198;27.824;2022-07-22T06:55:29;101509.94;;;26.72;55.88
63090;BME280;49174;43.198;27.824;2022-07-22T06:57:54;101505.38;;;26.92;55.87
63090;BME280;49174;43.198;27.824;2022-07-22T07:00:20;101500.78;;;27.16;54.81
63090;BME280;49174;43.198;27.824;2022-07-22T07:02:46;101497.19;;;27.45;54.30
63090;BME280;49174;43.198;27.824;2022-07-22T07:05:12;101494.66;;;27.73;55.71
63090;BME280;49174;43.198;27.824;2022-07-22T07:07:41;101501.13;;;27.92;50.49
63090;BME280;49174;43.198;27.824;2022-07-22T07:10:07;101495.63;;;28.11;50.16
63090;BME280;49174;43.198;27.824;2022-07-22T07:12:35;101500.31;;;28.35;50.18
63090;BME280;49174;43.198;27.824;2022-07-22T07:15:01;101503.56;;;28.61;49.17
63090;BME280;49174;43.198;27.824;2022-07-22T07:17:26;101494.25;;;28.89;48.48
63090;BME280;49174;43.198;27.824;2022-07-22T07:19:52;101502.41;;;29.18;49.73
63090;BME280;49174;43.198;27.824;2022-07-22T07:22:18;101500.00;;;29.45;47.18
63090;BME280;49174;43.198;27.824;2022-07-22T07:24:44;101500.47;;;29.66;41.49
63090;BME280;49174;43.198;27.824;2022-07-22T07:27:09;101506.47;;;29.87;43.83
63090;BME280;49174;43.198;27.824;2022-07-22T07:29:35;101491.00;;;30.08;41.01
63090;BME280;49174;43.198;27.824;2022-07-22T07:32:01;101495.13;;;30.24;40.54
63090;BME280;49174;43.198;27.824;2022-07-22T07:34:26;101495.19;;;30.47;38.09
63090;BME280;49174;43.198;27.824;2022-07-22T07:36:52;101488.63;;;30.65;33.34
63090;BME280;49174;43.198;27.824;2022-07-22T07:39:18;101500.94;;;30.87;29.44
63090;BME280;49174;43.198;27.824;2022-07-22T07:41:44;101502.28;;;31.12;31.71
63090;BME280;49174;43.198;27.824;2022-07-22T07:44:09;101509.19;;;31.37;30.56
63090;BME280;49174;43.198;27.824;2022-07-22T07:46:35;101508.78;;;31.52;29.13
63090;BME280;49174;43.198;27.824;2022-07-22T07:49:00;101499.19;;;31.76;31.09
63090;BME280;49174;43.198;27.824;2022-07-22T07:51:26;101495.66;;;31.93;31.29
63090;BME280;49174;43.198;27.824;2022-07-22T07:53:52;101492.94;;;32.10;28.82
63090;BME280;49174;43.198;27.824;2022-07-22T07:56:17;101500.03;;;32.25;28.48
63090;BME280;49174;43.198;27.824;2022-07-22T07:58:43;101496.31;;;32.47;29.25
63090;BME280;49174;43.198;27.824;2022-07-22T08:01:09;101492.53;;;32.69;26.84
63090;BME280;49174;43.198;27.824;2022-07-22T08:03:34;101499.59;;;32.84;27.88
63090;BME280;49174;43.198;27.824;2022-07-22T08:06:00;101502.06;;;33.03;28.91
63090;BME280;49174;43.198;27.824;2022-07-22T08:08:28;101502.84;;;33.21;28.44
63090;BME280;49174;43.198;27.824;2022-07-22T08:10:53;101505.63;;;33.38;28.02
63090;BME280;49174;43.198;27.824;2022-07-22T08:13:19;101497.88;;;33.52;27.07
63090;BME280;49174;43.198;27.824;2022-07-22T08:15:45;101496.97;;;33.69;26.85
63090;BME280;49174;43.198;27.824;2022-07-22T08:18:10;101499.88;;;33.81;25.49
63090;BME280;49174;43.198;27.824;2022-07-22T08:20:36;101495.06;;;33.91;25.08
63090;BME280;49174;43.198;27.824;2022-07-22T08:23:02;101496.66;;;34.00;25.64
63090;BME280;49174;43.198;27.824;2022-07-22T08:25:27;101495.44;;;34.19;26.83
63090;BME280;49174;43.198;27.824;2022-07-22T08:27:53;101500.72;;;34.41;26.87
63090;BME280;49174;43.198;27.824;2022-07-22T08:30:19;101503.94;;;34.52;25.47
63090;BME280;49174;43.198;27.824;2022-07-22T08:32:46;101490.56;;;34.58;23.90
63090;BME280;49174;43.198;27.824;2022-07-22T08:35:12;101489.78;;;34.69;25.67
63090;BME280;49174;43.198;27.824;2022-07-22T08:37:38;101493.59;;;34.86;24.24
63090;BME280;49174;43.198;27.824;2022-07-22T08:40:05;101493.03;;;34.92;22.83
63090;BME280;49174;43.198;27.824;2022-07-22T08:42:36;101487.34;;;35.01;24.00
63090;BME280;49174;43.198;27.824;2022-07-22T08:45:03;101488.03;;;35.19;25.64
63090;BME280;49174;43.198;27.824;2022-07-22T08:47:35;101497.63;;;35.30;25.21
63090;BME280;49174;43.198;27.824;2022-07-22T08:50:02;101497.31;;;35.44;23.35
63090;BME280;49174;43.198;27.824;2022-07-22T08:52:28;101489.81;;;35.48;22.01
63090;BME280;49174;43.198;27.824;2022-07-22T08:54:54;101492.72;;;35.52;23.52
63090;BME280;49174;43.198;27.824;2022-07-22T08:57:20;101495.47;;;35.61;22.30
63090;BME280;49174;43.198;27.824;2022-07-22T08:59:57;101492.19;;;35.71;21.59
63090;BME280;49174;43.198;27.824;2022-07-22T09:02:23;101494.31;;;35.74;21.10
63090;BME280;49174;43.198;27.824;2022-07-22T09:04:58;101491.63;;;35.77;21.88
63090;BME280;49174;43.198;27.824;2022-07-22T09:07:33;101490.81;;;35.89;22.92
63090;BME280;49174;43.198;27.824;2022-07-22T09:10:00;101498.41;;;36.01;22.63
63090;BME280;49174;43.198;27.824;2022-07-22T09:12:26;101495.50;;;36.10;21.57
63090;BME280;49174;43.198;27.824;2022-07-22T09:14:58;101496.66;;;36.21;22.65
63090;BME280;49174;43.198;27.824;2022-07-22T09:17:31;101490.31;;;36.36;22.67
63090;BME280;49174;43.198;27.824;2022-07-22T09:19:59;101494.25;;;36.47;22.40
63090;BME280;49174;43.198;27.824;2022-07-22T09:25:17;101480.03;;;36.68;21.21
63090;BME280;49174;43.198;27.824;2022-07-22T09:27:45;101496.31;;;36.75;21.72
63090;BME280;49174;43.198;27.824;2022-07-22T09:30:18;101488.72;;;36.91;22.06
63090;BME280;49174;43.198;27.824;2022-07-22T09:32:45;101495.00;;;37.01;21.84
63090;BME280;49174;43.198;27.824;2022-07-22T09:35:11;101496.16;;;37.12;22.64
63090;BME280;49174;43.198;27.824;2022-07-22T09:37:46;101492.81;;;37.22;21.81
63090;BME280;49174;43.198;27.824;2022-07-22T09:40:17;101478.19;;;37.32;20.94
63090;BME280;49174;43.198;27.824;2022-07-22T09:45:17;101480.41;;;37.55;21.17
63090;BME280;49174;43.198;27.824;2022-07-22T09:47:43;101478.31;;;37.68;21.27
63090;BME280;49174;43.198;27.824;2022-07-22T09:52:47;101476.91;;;37.93;21.90
63090;BME280;49174;43.198;27.824;2022-07-22T09:55:16;101479.09;;;38.00;21.75
63090;BME280;49174;43.198;27.824;2022-07-22T09:57:42;101477.13;;;38.00;20.33
63090;BME280;49174;43.198;27.824;2022-07-22T10:00:08;101476.81;;;38.06;20.13
63090;BME280;49174;43.198;27.824;2022-07-22T10:02:46;101470.47;;;38.09;20.64
63090;BME280;49174;43.198;27.824;2022-07-22T10:05:14;101472.09;;;38.10;20.25
63090;BME280;49174;43.198;27.824;2022-07-22T10:07:44;101467.72;;;38.12;20.23
63090;BME280;49174;43.198;27.824;2022-07-22T10:10:12;101462.34;;;38.23;20.81
63090;BME280;49174;43.198;27.824;2022-07-22T10:12:38;101459.00;;;38.37;20.87
63090;BME280;49174;43.198;27.824;2022-07-22T10:15:06;101454.06;;;38.50;18.87
63090;BME280;49174;43.198;27.824;2022-07-22T10:17:38;101453.53;;;38.44;20.35
63090;BME280;49174;43.198;27.824;2022-07-22T10:20:05;101451.47;;;38.41;20.39
63090;BME280;49174;43.198;27.824;2022-07-22T10:25:12;101459.69;;;38.69;20.74
63090;BME280;49174;43.198;27.824;2022-07-22T10:27:57;101450.25;;;38.81;20.32
63090;BME280;49174;43.198;27.824;2022-07-22T10:30:26;101452.13;;;38.93;20.46
63090;BME280;49174;43.198;27.824;2022-07-22T10:33:17;101446.69;;;39.03;20.42
63090;BME280;49174;43.198;27.824;2022-07-22T10:35:59;101451.56;;;39.06;19.26
63090;BME280;49174;43.198;27.824;2022-07-22T10:38:26;101442.72;;;39.08;19.51
63090;BME280;49174;43.198;27.824;2022-07-22T10:41:01;101438.78;;;39.13;21.05
63090;BME280;49174;43.198;27.824;2022-07-22T10:43:28;101443.72;;;39.19;20.50
63090;BME280;49174;43.198;27.824;2022-07-22T10:45:56;101443.91;;;39.30;20.48
63090;BME280;49174;43.198;27.824;2022-07-22T10:51:07;101429.63;;;39.42;19.44
63090;BME280;49174;43.198;27.824;2022-07-22T10:53:43;101436.97;;;39.47;19.13
63090;BME280;49174;43.198;27.824;2022-07-22T10:58:56;101440.22;;;39.49;18.97
63090;BME280;49174;43.198;27.824;2022-07-22T11:01:28;101440.19;;;39.45;18.99
63090;BME280;49174;43.198;27.824;2022-07-22T11:03:55;101431.38;;;39.50;19.19
63090;BME280;49174;43.198;27.824;2022-07-22T11:06:28;101443.41;;;39.47;19.06
63090;BME280;49174;43.198;27.824;2022-07-22T11:09:00;101434.09;;;39.43;18.28
63090;BME280;49174;43.198;27.824;2022-07-22T11:11:35;101441.34;;;39.44;19.32
63090;BME280;49174;43.198;27.824;2022-07-22T11:14:05;101435.66;;;39.41;19.06
63090;BME280;49174;43.198;27.824;2022-07-22T11:16:36;101433.19;;;39.39;20.14
63090;BME280;49174;43.198;27.824;2022-07-22T11:19:02;101433.69;;;39.45;19.38
63090;BME280;49174;43.198;27.824;2022-07-22T11:21:30;101440.81;;;39.62;19.66
63090;BME280;49174;43.198;27.824;2022-07-22T11:23:59;101435.75;;;39.71;19.90
63090;BME280;49174;43.198;27.824;2022-07-22T11:26:42;101435.53;;;39.83;19.41
63090;BME280;49174;43.198;27.824;2022-07-22T11:29:11;101440.81;;;39.85;18.07
63090;BME280;49174;43.198;27.824;2022-07-22T11:31:40;101440.00;;;39.84;18.06
63090;BME280;49174;43.198;27.824;2022-07-22T11:34:14;101442.91;;;39.65;17.51
63090;BME280;49174;43.198;27.824;2022-07-22T11:36:43;101440.47;;;39.63;18.36
63090;BME280;49174;43.198;27.824;2022-07-22T11:39:13;101432.34;;;39.62;18.44
63090;BME280;49174;43.198;27.824;2022-07-22T11:41:40;101447.53;;;39.53;19.83
63090;BME280;49174;43.198;27.824;2022-07-22T11:44:07;101438.00;;;39.62;19.17
63090;BME280;49174;43.198;27.824;2022-07-22T11:46:37;101434.84;;;39.67;18.47
63090;BME280;49174;43.198;27.824;2022-07-22T11:49:04;101449.63;;;39.80;19.01
63090;BME280;49174;43.198;27.824;2022-07-22T11:51:31;101444.47;;;39.85;18.60
63090;BME280;49174;43.198;27.824;2022-07-22T11:53:58;101437.72;;;39.93;18.67
63090;BME280;49174;43.198;27.824;2022-07-22T11:56:24;101429.56;;;39.88;18.74
63090;BME280;49174;43.198;27.824;2022-07-22T11:58:51;101429.41;;;39.78;19.03
63090;BME280;49174;43.198;27.824;2022-07-22T12:01:22;101426.06;;;39.72;17.80
63090;BME280;49174;43.198;27.824;2022-07-22T12:03:50;101431.78;;;39.75;18.74
63090;BME280;49174;43.198;27.824;2022-07-22T12:06:17;101433.47;;;39.80;17.98
63090;BME280;49174;43.198;27.824;2022-07-22T12:08:46;101420.59;;;39.83;18.66
63090;BME280;49174;43.198;27.824;2022-07-22T12:11:15;101443.56;;;39.81;18.24
63090;BME280;49174;43.198;27.824;2022-07-22T12:13:46;101428.63;;;39.54;20.18
63090;BME280;49174;43.198;27.824;2022-07-22T12:18:44;101429.47;;;38.89;21.68
63090;BME280;49174;43.198;27.824;2022-07-22T12:21:09;101431.53;;;38.92;22.90
63090;BME280;49174;43.198;27.824;2022-07-22T12:23:35;101417.44;;;38.92;22.04
63090;BME280;49174;43.198;27.824;2022-07-22T12:26:02;101415.31;;;38.66;22.81
63090;BME280;49174;43.198;27.824;2022-07-22T12:28:30;101407.06;;;38.18;23.76
63090;BME280;49174;43.198;27.824;2022-07-22T12:30:56;101420.69;;;37.97;25.59
63090;BME280;49174;43.198;27.824;2022-07-22T12:33:22;101423.31;;;37.90;25.07
63090;BME280;49174;43.198;27.824;2022-07-22T12:36:06;101409.47;;;37.65;24.25
63090;BME280;49174;43.198;27.824;2022-07-22T12:38:32;101413.00;;;37.30;25.17
63090;BME280;49174;43.198;27.824;2022-07-22T12:41:26;101413.28;;;37.09;25.23
63090;BME280;49174;43.198;27.824;2022-07-22T12:43:53;101420.94;;;36.97;25.86
63090;BME280;49174;43.198;27.824;2022-07-22T12:46:18;101417.69;;;36.95;25.10
63090;BME280;49174;43.198;27.824;2022-07-22T12:48:51;101419.53;;;36.59;25.03
63090;BME280;49174;43.198;27.824;2022-07-22T12:51:16;101415.84;;;36.30;26.24
63090;BME280;49174;43.198;27.824;2022-07-22T12:53:42;101410.84;;;36.23;26.52
63090;BME280;49174;43.198;27.824;2022-07-22T12:56:08;101417.25;;;36.36;26.65
63090;BME280;49174;43.198;27.824;2022-07-22T12:58:36;101413.72;;;36.39;26.88
63090;BME280;49174;43.198;27.824;2022-07-22T13:01:03;101413.09;;;36.18;25.55
63090;BME280;49174;43.198;27.824;2022-07-22T13:03:30;101415.00;;;35.89;26.13
63090;BME280;49174;43.198;27.824;2022-07-22T13:05:57;101418.50;;;35.86;27.66
63090;BME280;49174;43.198;27.824;2022-07-22T13:08:24;101418.72;;;35.93;27.91